createdAt,value
2018-06-23T08:01:54.364Z,1024.7
2018-06-23T08:03:16.160Z,1024.87
2018-06-23T08:04:38.059Z,1024.91
2018-06-23T08:06:00.123Z,1024.91
2018-06-23T08:07:22.221Z,1024.88
2018-06-23T08:08:44.014Z,1024.79
2018-06-23T08:10:06.064Z,1024.76
2018-06-23T08:11:28.158Z,1024.73
2018-06-23T08:12:50.568Z,1024.81
2018-06-23T08:14:12.638Z,1024.86
2018-06-23T08:15:34.711Z,1024.9
2018-06-23T08:16:56.778Z,1025.03
2018-06-23T08:18:18.849Z,1024.99
2018-06-23T08:19:39.917Z,1024.99
2018-06-23T08:21:01.972Z,1024.91
2018-06-23T08:22:23.762Z,1024.86
2018-06-23T08:23:45.817Z,1025.16
2018-06-23T08:25:07.906Z,1024.94
2018-06-23T08:26:30.028Z,1024.98
2018-06-23T08:27:52.728Z,1024.98
2018-06-23T08:29:14.518Z,1025.14
2018-06-23T08:30:36.591Z,1024.94
2018-06-23T08:31:58.732Z,1024.84
2018-06-23T08:33:20.792Z,1024.78
2018-06-23T08:34:42.727Z,1024.91
2018-06-23T08:36:04.801Z,1024.78
2018-06-23T08:37:26.863Z,1024.88
2018-06-23T08:38:49.123Z,1025.1
2018-06-23T08:40:11.170Z,1025.06
2018-06-23T08:41:33.226Z,1024.97
2018-06-23T08:42:55.040Z,1024.94
2018-06-23T08:44:16.849Z,1024.9
2018-06-23T08:45:38.923Z,1024.87
2018-06-23T08:47:00.953Z,1025
2018-06-23T08:48:23.021Z,1025.1
2018-06-23T08:49:44.807Z,1024.98
2018-06-23T08:51:06.116Z,1024.96
2018-06-23T08:52:27.906Z,1025.03
2018-06-23T08:53:50.005Z,1025.07
2018-06-23T08:55:12.073Z,1025.01
2018-06-23T08:56:34.130Z,1025.07
2018-06-23T08:57:56.144Z,1025.04
2018-06-23T08:59:18.214Z,1024.98
2018-06-23T09:00:40.270Z,1024.98
2018-06-23T09:02:02.333Z,1025.03
2018-06-23T09:03:24.388Z,1025.12
2018-06-23T09:04:46.445Z,1025.07
2018-06-23T09:06:08.242Z,1024.94
2018-06-23T09:07:30.079Z,1025
2018-06-23T09:08:51.888Z,1024.98
2018-06-23T09:10:13.678Z,1024.87
2018-06-23T09:11:35.514Z,1025.1
2018-06-23T09:12:57.346Z,1025.01
2018-06-23T09:14:19.164Z,1024.9
2018-06-23T09:15:41.239Z,1024.84
2018-06-23T09:17:03.354Z,1024.84
2018-06-23T09:18:25.405Z,1025.07
2018-06-23T09:19:47.465Z,1025.14
2018-06-23T09:21:09.529Z,1025.16
2018-06-23T09:22:31.591Z,1025.13
2018-06-23T09:23:53.655Z,1025.29
2018-06-23T09:25:15.815Z,1025
2018-06-23T09:26:38.192Z,1024.94
2018-06-23T09:28:00.027Z,1024.84
2018-06-23T09:29:22.114Z,1024.79
2018-06-23T09:30:44.189Z,1024.8
2018-06-23T09:32:06.026Z,1024.89
2018-06-23T09:33:27.593Z,1024.92
2018-06-23T09:34:49.702Z,1024.99
2018-06-23T09:36:11.541Z,1025.05
2018-06-23T09:37:33.356Z,1025.07
2018-06-23T09:38:55.455Z,1025.16
2018-06-23T09:40:17.515Z,1025.17
2018-06-23T09:41:39.584Z,1025.29
2018-06-23T09:43:01.651Z,1025.31
2018-06-23T09:44:23.710Z,1025.32
2018-06-23T09:45:45.847Z,1025.35
2018-06-23T09:47:07.924Z,1025.38
2018-06-23T09:48:29.991Z,1025.4
2018-06-23T09:49:51.807Z,1025.44
2018-06-23T09:51:13.615Z,1025.41
2018-06-23T09:52:35.689Z,1025.36
2018-06-23T09:53:57.768Z,1025.39
2018-06-23T09:55:19.611Z,1025.44
2018-06-23T09:56:41.665Z,1025.39
2018-06-23T09:58:03.734Z,1025.42
2018-06-23T09:59:25.835Z,1025.52
2018-06-23T10:00:47.895Z,1025.38
2018-06-23T10:02:09.715Z,1025.4
2018-06-23T10:03:31.517Z,1025.45
2018-06-23T10:04:53.593Z,1025.44
2018-06-23T10:06:15.396Z,1025.44
2018-06-23T10:07:36.934Z,1025.41
2018-06-23T10:08:59.023Z,1025.46
2018-06-23T10:10:20.837Z,1025.43
2018-06-23T10:11:42.385Z,1025.38
2018-06-23T10:13:04.461Z,1025.58
2018-06-23T10:14:26.254Z,1025.58
2018-06-23T10:15:48.304Z,1025.6
2018-06-23T10:17:10.126Z,1025.64
2018-06-23T10:18:32.197Z,1025.59
2018-06-23T10:19:53.996Z,1025.52
2018-06-23T10:21:16.082Z,1025.45
2018-06-23T10:22:38.364Z,1025.47
2018-06-23T10:24:00.189Z,1025.35
2018-06-23T10:25:21.482Z,1025.35
2018-06-23T10:26:43.273Z,1025.33
2018-06-23T10:28:05.100Z,1025.47
2018-06-23T10:29:26.910Z,1025.68
2018-06-23T10:30:48.443Z,1025.7
2018-06-23T10:32:10.550Z,1025.64
2018-06-23T10:33:32.623Z,1025.58
2018-06-23T10:34:54.704Z,1025.68
2018-06-23T10:36:16.769Z,1025.71
2018-06-23T10:37:38.830Z,1025.64
2018-06-23T10:39:00.976Z,1025.57
2018-06-23T10:40:22.524Z,1025.62
2018-06-23T10:41:44.334Z,1025.53
2018-06-23T10:43:06.419Z,1025.47
2018-06-23T10:44:28.200Z,1025.44
2018-06-23T10:45:49.997Z,1025.49
2018-06-23T10:47:12.113Z,1025.6
2018-06-23T10:48:33.680Z,1025.42
2018-06-23T10:49:55.770Z,1025.65
2018-06-23T10:51:17.983Z,1025.6
2018-06-23T10:52:39.823Z,1025.54
2018-06-23T10:54:01.900Z,1025.64
2018-06-23T10:55:23.998Z,1025.65
2018-06-23T10:56:45.793Z,1025.6
2018-06-23T10:58:07.613Z,1025.57
2018-06-23T10:59:29.688Z,1025.48
2018-06-23T11:00:51.499Z,1025.5
2018-06-23T11:02:13.577Z,1025.45
2018-06-23T11:03:35.405Z,1025.38
2018-06-23T11:04:57.694Z,1025.4
2018-06-23T11:06:19.986Z,1025.49
2018-06-23T11:07:42.076Z,1025.51
2018-06-23T11:09:04.139Z,1025.55
2018-06-23T11:10:26.014Z,1025.64
2018-06-23T11:11:47.837Z,1025.53
2018-06-23T11:13:09.928Z,1025.45
2018-06-23T11:14:32.063Z,1025.52
2018-06-23T11:15:53.914Z,1025.58
2018-06-23T11:17:16.041Z,1025.53
2018-06-23T11:18:37.847Z,1025.66
2018-06-23T11:19:59.726Z,1025.59
2018-06-23T11:21:21.289Z,1025.67
2018-06-23T11:22:43.089Z,1025.55
2018-06-23T11:24:04.630Z,1025.68
2018-06-23T11:25:27.188Z,1025.66
2018-06-23T11:26:49.266Z,1025.66
2018-06-23T11:28:11.340Z,1025.45
2018-06-23T11:29:33.133Z,1025.54
2018-06-23T11:30:54.949Z,1025.65
2018-06-23T11:32:16.804Z,1025.64
2018-06-23T11:33:38.863Z,1025.59
2018-06-23T11:35:00.682Z,1025.62
2018-06-23T11:36:22.768Z,1025.58
2018-06-23T11:37:44.584Z,1025.5
2018-06-23T11:39:06.652Z,1025.54
2018-06-23T11:40:28.730Z,1025.54
2018-06-23T11:41:50.811Z,1025.56
2018-06-23T11:43:12.616Z,1025.53
2018-06-23T11:44:34.416Z,1025.42
2018-06-23T11:45:56.502Z,1025.54
2018-06-23T11:47:18.051Z,1025.61
2018-06-23T11:48:40.141Z,1025.53
2018-06-23T11:50:01.969Z,1025.58
2018-06-23T11:51:23.766Z,1025.48
2018-06-23T11:52:45.564Z,1025.54
2018-06-23T11:54:07.465Z,1025.48
2018-06-23T11:55:29.514Z,1025.52
2018-06-23T11:56:51.580Z,1025.43
2018-06-23T11:58:13.379Z,1025.41
2018-06-23T11:59:35.442Z,1025.54
2018-06-23T12:00:57.520Z,1025.55
2018-06-23T12:02:19.573Z,1025.68
2018-06-23T12:03:41.651Z,1025.59
2018-06-23T12:05:03.726Z,1025.61
2018-06-23T12:06:25.278Z,1025.54
2018-06-23T12:07:47.344Z,1025.61
2018-06-23T12:09:09.187Z,1025.6
2018-06-23T12:10:31.332Z,1025.56
2018-06-23T12:11:53.418Z,1025.57
2018-06-23T12:13:15.509Z,1025.55
2018-06-23T12:14:37.031Z,1025.69
2018-06-23T12:15:58.816Z,1025.53
2018-06-23T12:17:20.618Z,1025.39
2018-06-23T12:18:42.749Z,1025.53
2018-06-23T12:20:04.832Z,1025.66
2018-06-23T12:21:27.029Z,1025.67
2018-06-23T12:22:49.096Z,1025.67
2018-06-23T12:24:10.900Z,1025.76
2018-06-23T12:25:33.089Z,1025.74
2018-06-23T12:26:55.268Z,1025.57
2018-06-23T12:28:17.342Z,1025.49
2018-06-23T12:29:39.149Z,1025.49
2018-06-23T12:31:01.248Z,1025.52
2018-06-23T12:32:23.330Z,1025.44
2018-06-23T12:33:45.160Z,1025.46
2018-06-23T12:35:07.257Z,1025.58
2018-06-23T12:36:29.363Z,1025.43
2018-06-23T12:37:51.414Z,1025.36
2018-06-23T12:39:13.471Z,1025.4
2018-06-23T12:40:35.580Z,1025.41
2018-06-23T12:41:57.651Z,1025.46
2018-06-23T12:43:19.460Z,1025.45
2018-06-23T12:44:41.542Z,1025.55
2018-06-23T12:46:03.617Z,1025.56
2018-06-23T12:47:25.422Z,1025.61
2018-06-23T12:48:47.495Z,1025.65
2018-06-23T12:50:09.337Z,1025.6
2018-06-23T12:51:31.407Z,1025.7
2018-06-23T12:52:53.473Z,1025.67
2018-06-23T12:54:15.031Z,1025.55
2018-06-23T12:55:36.585Z,1025.6
2018-06-23T12:56:58.673Z,1025.61
2018-06-23T12:58:20.755Z,1025.57
2018-06-23T12:59:43.074Z,1025.44
2018-06-23T13:01:04.901Z,1025.53
2018-06-23T13:02:26.724Z,1025.47
2018-06-23T13:03:48.564Z,1025.35
2018-06-23T13:05:10.667Z,1025.39
2018-06-23T13:06:32.844Z,1025.37
2018-06-23T13:07:54.964Z,1025.45
2018-06-23T13:09:16.765Z,1025.4
2018-06-23T13:10:38.580Z,1025.42
2018-06-23T13:12:00.644Z,1025.29
2018-06-23T13:13:22.728Z,1025.3
2018-06-23T13:14:44.818Z,1025.35
2018-06-23T13:16:06.637Z,1025.3
2018-06-23T13:17:28.455Z,1025.45
2018-06-23T13:18:50.549Z,1025.42
2018-06-23T13:20:12.619Z,1025.35
2018-06-23T13:21:36.281Z,1025.38
2018-06-23T13:22:58.106Z,1025.39
2018-06-23T13:24:20.191Z,1025.5
2018-06-23T13:25:42.311Z,1025.48
2018-06-23T13:27:04.371Z,1025.42
2018-06-23T13:28:26.196Z,1025.51
2018-06-23T13:29:48.301Z,1025.45
2018-06-23T13:31:10.390Z,1025.43
2018-06-23T13:32:32.534Z,1025.42
2018-06-23T13:33:54.858Z,1025.4
2018-06-23T13:35:16.933Z,1025.37
2018-06-23T13:36:38.736Z,1025.37
2018-06-23T13:38:00.828Z,1025.41
2018-06-23T13:39:22.920Z,1025.31
2018-06-23T13:40:45.238Z,1025.36
2018-06-23T13:42:07.309Z,1025.38
2018-06-23T13:43:29.126Z,1025.42
2018-06-23T13:44:51.712Z,1025.4
2018-06-23T13:46:13.851Z,1025.52
2018-06-23T13:47:35.667Z,1025.42
2018-06-23T13:48:57.473Z,1025.38
2018-06-23T13:50:19.290Z,1025.4
2018-06-23T13:51:41.098Z,1025.27
2018-06-23T13:53:03.189Z,1025.36
2018-06-23T13:54:25.309Z,1025.27
2018-06-23T13:55:47.389Z,1025.3
2018-06-23T13:57:09.489Z,1025.4
2018-06-23T13:58:31.563Z,1025.3
2018-06-23T13:59:53.694Z,1025.21
2018-06-23T14:01:15.810Z,1025.21
2018-06-23T14:02:37.941Z,1025.26
2018-06-23T14:04:00.069Z,1025.17
2018-06-23T14:05:22.186Z,1025.2
2018-06-23T14:06:44.325Z,1025.13
2018-06-23T14:08:06.148Z,1025.24
2018-06-23T14:09:27.471Z,1025.26
2018-06-23T14:10:49.291Z,1025.21
2018-06-23T14:12:11.118Z,1025.3
2018-06-23T14:13:32.746Z,1025.27
2018-06-23T14:14:54.918Z,1025.18
2018-06-23T14:16:17.089Z,1025.18
2018-06-23T14:17:39.253Z,1025.11
2018-06-23T14:19:00.842Z,1025.03
2018-06-23T14:20:22.977Z,1025.09
2018-06-23T14:21:44.660Z,1025.05
2018-06-23T14:23:07.012Z,1025.1
2018-06-23T14:24:29.171Z,1025.18
2018-06-23T14:25:51.032Z,1025.02
2018-06-23T14:27:12.618Z,1024.99
2018-06-23T14:28:34.170Z,1025.22
2018-06-23T14:29:56.288Z,1025.16
2018-06-23T14:31:18.529Z,1025.14
2018-06-23T14:32:40.538Z,1025.19
2018-06-23T14:34:02.674Z,1025.2
2018-06-23T14:35:24.527Z,1025.21
2018-06-23T14:36:46.892Z,1025.21
2018-06-23T14:38:09.002Z,1025.18
2018-06-23T14:39:31.093Z,1025.2
2018-06-23T14:40:52.946Z,1025.28
2018-06-23T14:42:14.785Z,1025.16
2018-06-23T14:43:36.882Z,1025.19
2018-06-23T14:44:59.004Z,1025.09
2018-06-23T14:46:21.106Z,1025.01
2018-06-23T14:47:42.950Z,1025.03
2018-06-23T14:49:04.748Z,1024.96
2018-06-23T14:50:26.818Z,1024.99
2018-06-23T14:51:48.354Z,1025.01
2018-06-23T14:53:10.455Z,1024.98
2018-06-23T14:54:32.545Z,1025.06
2018-06-23T14:55:54.373Z,1025.04
2018-06-23T14:57:15.973Z,1025.04
2018-06-23T14:58:38.051Z,1025.06
2018-06-23T14:59:59.883Z,1025.16
2018-06-23T15:01:22.003Z,1025.13
2018-06-23T15:02:44.173Z,1025.09
2018-06-23T15:04:05.798Z,1025.04
2018-06-23T15:05:27.643Z,1025.09
2018-06-23T15:06:49.738Z,1025.14
2018-06-23T15:08:11.543Z,1025.14
2018-06-23T15:09:33.350Z,1025.04
2018-06-23T15:10:55.439Z,1025.12
2018-06-23T15:12:17.025Z,1025.1
2018-06-23T15:13:39.121Z,1025.04
2018-06-23T15:15:01.210Z,1025.05
2018-06-23T15:16:23.030Z,1025.05
2018-06-23T15:17:44.843Z,1025.15
2018-06-23T15:19:06.656Z,1025.04
2018-06-23T15:20:28.753Z,1025.02
2018-06-23T15:21:50.553Z,1025.05
2018-06-23T15:23:12.719Z,1025.03
2018-06-23T15:24:34.272Z,1025.08
2018-06-23T15:25:56.097Z,1025.04
2018-06-23T15:27:18.155Z,1024.94
2018-06-23T15:28:40.219Z,1025.02
2018-06-23T15:30:02.272Z,1024.89
2018-06-23T15:31:24.099Z,1025
2018-06-23T15:32:45.635Z,1025.18
2018-06-23T15:34:07.692Z,1024.9
2018-06-23T15:35:29.479Z,1024.96
2018-06-23T15:36:51.317Z,1024.92
2018-06-23T15:38:13.166Z,1025.07
2018-06-23T15:39:35.539Z,1024.97
2018-06-23T15:40:57.643Z,1025
2018-06-23T15:42:19.747Z,1025.04
2018-06-23T15:43:41.873Z,1025.04
2018-06-23T15:45:04.235Z,1024.95
2018-06-23T15:46:25.820Z,1025.02
2018-06-23T15:47:47.654Z,1024.98
2018-06-23T15:49:09.197Z,1024.92
2018-06-23T15:50:30.718Z,1024.88
2018-06-23T15:51:52.785Z,1024.88
2018-06-23T15:53:14.631Z,1024.87
2018-06-23T15:54:36.766Z,1024.86
2018-06-23T15:55:58.547Z,1024.9
2018-06-23T15:57:20.709Z,1024.88
2018-06-23T15:58:42.773Z,1024.83
2018-06-23T16:00:04.831Z,1024.84
2018-06-23T16:01:26.384Z,1024.83
2018-06-23T16:02:48.456Z,1024.76
2018-06-23T16:04:10.253Z,1024.82
2018-06-23T16:05:32.329Z,1024.74
2018-06-23T16:06:54.407Z,1024.75
2018-06-23T16:08:16.487Z,1024.78
2018-06-23T16:09:38.557Z,1024.74
2018-06-23T16:11:00.383Z,1024.85
2018-06-23T16:12:22.447Z,1024.82
2018-06-23T16:13:44.242Z,1024.85
2018-06-23T16:15:06.309Z,1024.87
2018-06-23T16:16:28.362Z,1024.82
2018-06-23T16:17:49.656Z,1024.89
2018-06-23T16:19:11.771Z,1024.94
2018-06-23T16:20:33.699Z,1024.85
2018-06-23T16:21:55.499Z,1024.79
2018-06-23T16:23:17.571Z,1024.82
2018-06-23T16:24:39.629Z,1024.76
2018-06-23T16:26:01.711Z,1024.8
2018-06-23T16:27:23.512Z,1024.84
2018-06-23T16:28:45.585Z,1024.91
2018-06-23T16:30:07.420Z,1024.87
2018-06-23T16:31:28.988Z,1024.79
2018-06-23T16:32:51.201Z,1024.86
2018-06-23T16:34:13.273Z,1024.82
2018-06-23T16:35:35.208Z,1024.82
2018-06-23T16:36:57.299Z,1024.75
2018-06-23T16:38:19.151Z,1024.74
2018-06-23T16:39:40.974Z,1024.75
2018-06-23T16:41:02.803Z,1024.76
2018-06-23T16:42:24.875Z,1024.71
2018-06-23T16:43:46.751Z,1024.74
2018-06-23T16:45:08.618Z,1024.89
2018-06-23T16:46:30.572Z,1024.76
2018-06-23T16:47:52.705Z,1024.76
2018-06-23T16:49:14.533Z,1024.83
2018-06-23T16:50:36.599Z,1024.86
2018-06-23T16:51:58.128Z,1024.75
2018-06-23T16:53:19.913Z,1024.81
2018-06-23T16:54:42.020Z,1024.74
2018-06-23T16:56:03.833Z,1024.77
2018-06-23T16:57:25.924Z,1024.77
2018-06-23T16:58:47.736Z,1024.73
2018-06-23T17:00:09.291Z,1024.77
2018-06-23T17:01:30.842Z,1024.69
2018-06-23T17:02:52.914Z,1024.77
2018-06-23T17:04:14.742Z,1024.72
2018-06-23T17:05:36.049Z,1024.7
2018-06-23T17:06:58.133Z,1024.66
2018-06-23T17:08:20.227Z,1024.66
2018-06-23T17:09:42.284Z,1024.7
2018-06-23T17:11:04.081Z,1024.69
2018-06-23T17:12:25.711Z,1024.66
2018-06-23T17:13:47.513Z,1024.65
2018-06-23T17:15:09.399Z,1024.63
2018-06-23T17:16:31.525Z,1024.7
2018-06-23T17:17:53.323Z,1024.64
2018-06-23T17:19:14.905Z,1024.69
2018-06-23T17:20:37.241Z,1024.62
2018-06-23T17:21:59.294Z,1024.58
2018-06-23T17:23:21.407Z,1024.64
2018-06-23T17:24:43.468Z,1024.69
2018-06-23T17:26:05.565Z,1024.6
2018-06-23T17:27:27.646Z,1024.53
2018-06-23T17:28:49.714Z,1024.57
2018-06-23T17:30:11.779Z,1024.6
2018-06-23T17:31:33.857Z,1024.52
2018-06-23T17:32:55.654Z,1024.5
2018-06-23T17:34:17.453Z,1024.53
2018-06-23T17:35:39.541Z,1024.5
2018-06-23T17:37:01.364Z,1024.43
2018-06-23T17:38:23.488Z,1024.5
2018-06-23T17:39:45.632Z,1024.47
2018-06-23T17:41:07.688Z,1024.42
2018-06-23T17:42:29.483Z,1024.43
2018-06-23T17:43:51.305Z,1024.48
2018-06-23T17:45:13.164Z,1024.42
2018-06-23T17:46:34.978Z,1024.4
2018-06-23T17:47:57.057Z,1024.35
2018-06-23T17:49:18.843Z,1024.34
2018-06-23T17:50:40.887Z,1024.34
2018-06-23T17:52:02.939Z,1024.37
2018-06-23T17:53:24.756Z,1024.34
2018-06-23T17:55:18.697Z,1024.35
2018-06-23T17:56:40.480Z,1024.33
2018-06-23T17:58:02.669Z,1024.33
2018-06-23T17:59:24.637Z,1024.38
2018-06-23T18:00:46.684Z,1024.34
2018-06-23T18:02:08.743Z,1024.36
2018-06-23T18:03:30.869Z,1024.36
2018-06-23T18:04:52.945Z,1024.38
2018-06-23T18:06:14.551Z,1024.48
2018-06-23T18:07:36.578Z,1024.45
2018-06-23T18:08:58.110Z,1024.36
2018-06-23T18:10:19.893Z,1024.37
2018-06-23T18:11:41.946Z,1024.37
2018-06-23T18:13:04.067Z,1024.29
2018-06-23T18:14:26.155Z,1024.34
2018-06-23T18:15:48.191Z,1024.32
2018-06-23T18:17:10.237Z,1024.28
2018-06-23T18:19:04.361Z,1024.31
2018-06-23T18:20:26.160Z,1024.26
2018-06-23T18:21:47.969Z,1024.25
2018-06-23T18:23:10.029Z,1024.23
2018-06-23T18:24:32.108Z,1024.22
2018-06-23T18:25:53.894Z,1024.19
2018-06-23T18:27:15.940Z,1024.16
2018-06-23T18:28:38.009Z,1024.22
2018-06-23T18:30:00.077Z,1024.21
2018-06-23T18:31:22.139Z,1024.25
2018-06-23T18:32:43.779Z,1024.22
2018-06-23T18:34:05.828Z,1024.23
2018-06-23T18:35:27.883Z,1024.32
2018-06-23T18:36:49.926Z,1024.26
2018-06-23T18:38:11.984Z,1024.26
2018-06-23T18:39:34.049Z,1024.31
2018-06-23T18:40:55.545Z,1024.23
2018-06-23T18:42:17.597Z,1024.3
2018-06-23T18:43:39.388Z,1024.21
2018-06-23T18:45:01.200Z,1024.32
2018-06-23T18:46:22.485Z,1024.22
2018-06-23T18:47:44.618Z,1024.22
2018-06-23T18:49:06.409Z,1024.28
2018-06-23T18:50:28.211Z,1024.24
2018-06-23T18:51:50.283Z,1024.27
2018-06-23T18:53:11.816Z,1024.28
2018-06-23T18:54:33.625Z,1024.32
2018-06-23T18:55:55.666Z,1024.29
2018-06-23T18:57:17.465Z,1024.29
2018-06-23T18:58:39.289Z,1024.29
2018-06-23T19:00:01.387Z,1024.33
2018-06-23T19:01:23.475Z,1024.34
2018-06-23T19:02:45.270Z,1024.36
2018-06-23T19:04:06.786Z,1024.35
2018-06-23T19:05:28.583Z,1024.4
2018-06-23T19:06:50.388Z,1024.43
2018-06-23T19:08:12.440Z,1024.39
2018-06-23T19:09:33.977Z,1024.39
2018-06-23T19:10:55.802Z,1024.38
2018-06-23T19:12:17.854Z,1024.41
2018-06-23T19:13:39.916Z,1024.41
2018-06-23T19:15:01.720Z,1024.43
2018-06-23T19:16:23.225Z,1024.33
2018-06-23T19:17:44.498Z,1024.34
2018-06-23T19:19:06.556Z,1024.37
2018-06-23T19:20:28.626Z,1024.33
2018-06-23T19:21:50.681Z,1024.33
2018-06-23T19:23:12.484Z,1024.31
2018-06-23T19:24:34.010Z,1024.38
2018-06-23T19:25:56.065Z,1024.26
2018-06-23T19:27:18.123Z,1024.35
2018-06-23T19:28:39.925Z,1024.29
2018-06-23T19:30:01.979Z,1024.34
2018-06-23T19:31:24.142Z,1024.21
2018-06-23T19:32:45.914Z,1024.37
2018-06-23T19:34:07.724Z,1024.27
2018-06-23T19:35:29.524Z,1024.32
2018-06-23T19:36:51.473Z,1024.35
2018-06-23T19:38:13.519Z,1024.28
2018-06-23T19:39:35.325Z,1024.31
2018-06-23T19:40:57.147Z,1024.34
2018-06-23T19:42:18.947Z,1024.29
2018-06-23T19:43:40.991Z,1024.28
2018-06-23T19:45:03.099Z,1024.36
2018-06-23T19:46:25.167Z,1024.33
2018-06-23T19:47:47.228Z,1024.35
2018-06-23T19:49:09.321Z,1024.4
2018-06-23T19:50:31.080Z,1024.41
2018-06-23T19:51:52.877Z,1024.44
2018-06-23T19:53:14.670Z,1024.4
2018-06-23T19:54:36.829Z,1024.41
2018-06-23T19:55:58.877Z,1024.44
2018-06-23T19:57:20.653Z,1024.45
2018-06-23T19:58:42.684Z,1024.46
2018-06-23T20:00:04.300Z,1024.43
2018-06-23T20:01:26.363Z,1024.44
2018-06-23T20:02:48.408Z,1024.47
2018-06-23T20:04:10.468Z,1024.49
2018-06-23T20:05:32.641Z,1024.41
2018-06-23T20:06:54.179Z,1024.47
2018-06-23T20:08:16.353Z,1024.51
2018-06-23T20:09:38.551Z,1024.43
2018-06-23T20:11:00.364Z,1024.42
2018-06-23T20:12:22.420Z,1024.45
2018-06-23T20:13:44.440Z,1024.51
2018-06-23T20:15:05.716Z,1024.44
2018-06-23T20:16:26.984Z,1024.49
2018-06-23T20:17:49.170Z,1024.47
2018-06-23T20:19:11.230Z,1024.48
2018-06-23T20:20:33.288Z,1024.56
2018-06-23T20:21:55.348Z,1024.49
2018-06-23T20:23:17.670Z,1024.53
2018-06-23T20:24:39.750Z,1024.54
2018-06-23T20:26:01.804Z,1024.58
2018-06-23T20:27:23.986Z,1024.5
2018-06-23T20:28:46.071Z,1024.52
2018-06-23T20:30:07.896Z,1024.53
2018-06-23T20:31:29.988Z,1024.53
2018-06-23T20:32:52.061Z,1024.51
2018-06-23T20:34:14.144Z,1024.58
2018-06-23T20:35:36.230Z,1024.58
2018-06-23T20:36:57.799Z,1024.56
2018-06-23T20:38:19.900Z,1024.55
2018-06-23T20:39:41.732Z,1024.55
2018-06-23T20:41:03.555Z,1024.56
2018-06-23T20:42:25.398Z,1024.54
2018-06-23T20:43:47.019Z,1024.52
2018-06-23T20:45:09.234Z,1024.58
2018-06-23T20:46:31.378Z,1024.56
2018-06-23T20:47:53.283Z,1024.55
2018-06-23T20:49:15.460Z,1024.56
2018-06-23T20:50:37.134Z,1024.51
2018-06-23T20:51:58.498Z,1024.51
2018-06-23T20:53:20.657Z,1024.53
2018-06-23T20:54:42.283Z,1024.52
2018-06-23T20:56:04.477Z,1024.52
2018-06-23T20:57:26.707Z,1024.54
2018-06-23T20:58:48.923Z,1024.51
2018-06-23T21:00:11.109Z,1024.52
2018-06-23T21:01:33.070Z,1024.55
2018-06-23T21:02:55.178Z,1024.54
2018-06-23T21:04:17.130Z,1024.53
2018-06-23T21:05:39.423Z,1024.58
2018-06-23T21:07:01.386Z,1024.62
2018-06-23T21:08:23.628Z,1024.56
2018-06-23T21:09:45.575Z,1024.58
2018-06-23T21:11:07.746Z,1024.63
2018-06-23T21:12:29.948Z,1024.57
2018-06-23T21:13:51.974Z,1024.6
2018-06-23T21:15:13.823Z,1024.6
2018-06-23T21:16:36.027Z,1024.62
2018-06-23T21:17:58.190Z,1024.56
2018-06-23T21:19:20.106Z,1024.59
2018-06-23T21:20:42.319Z,1024.6
2018-06-23T21:22:04.251Z,1024.61
2018-06-23T21:23:26.437Z,1024.62
2018-06-23T21:24:48.377Z,1024.61
2018-06-23T21:26:10.316Z,1024.6
2018-06-23T21:27:32.471Z,1024.59
2018-06-23T21:28:54.668Z,1024.64
2018-06-23T21:30:16.563Z,1024.66
2018-06-23T21:31:38.361Z,1024.65
2018-06-23T21:33:00.270Z,1024.64
2018-06-23T21:34:22.610Z,1024.64
2018-06-23T21:35:44.821Z,1024.59
2018-06-23T21:37:06.984Z,1024.6
2018-06-23T21:38:28.903Z,1024.65
2018-06-23T21:39:50.548Z,1024.62
2018-06-23T21:41:12.580Z,1024.61
2018-06-23T21:42:34.485Z,1024.58
2018-06-23T21:43:56.718Z,1024.53
2018-06-23T21:45:18.947Z,1024.59
2018-06-23T21:46:41.334Z,1024.57
2018-06-23T21:48:03.480Z,1024.6
2018-06-23T21:49:25.594Z,1024.63
2018-06-23T21:50:47.146Z,1024.61
2018-06-23T21:52:09.247Z,1024.59
2018-06-23T21:53:31.362Z,1024.6
2018-06-23T21:54:53.464Z,1024.55
2018-06-23T21:56:15.541Z,1024.54
2018-06-23T21:57:37.635Z,1024.53
2018-06-23T21:58:59.766Z,1024.52
2018-06-23T22:00:21.585Z,1024.53
2018-06-23T22:01:43.673Z,1024.51
2018-06-23T22:03:05.849Z,1024.54
2018-06-23T22:04:27.711Z,1024.52
2018-06-23T22:05:49.547Z,1024.51
2018-06-23T22:07:11.396Z,1024.52
2018-06-23T22:08:32.945Z,1024.49
2018-06-23T22:09:54.792Z,1024.48
2018-06-23T22:11:16.867Z,1024.47
2018-06-23T22:12:38.983Z,1024.52
2018-06-23T22:14:00.789Z,1024.47
2018-06-23T22:15:22.901Z,1024.46
2018-06-23T22:16:44.721Z,1024.4
2018-06-23T22:18:06.820Z,1024.47
2018-06-23T22:19:28.925Z,1024.39
2018-06-23T22:20:50.747Z,1024.35
2018-06-23T22:22:12.512Z,1024.35
2018-06-23T22:23:34.574Z,1024.36
2018-06-23T22:24:56.104Z,1024.34
2018-06-23T22:26:18.137Z,1024.31
2018-06-23T22:27:40.199Z,1024.35
2018-06-23T22:29:02.243Z,1024.31
2018-06-23T22:30:24.028Z,1024.3
2018-06-23T22:31:45.842Z,1024.28
2018-06-23T22:33:07.894Z,1024.26
2018-06-23T22:34:29.689Z,1024.19
2018-06-23T22:35:51.482Z,1024.22
2018-06-23T22:37:13.266Z,1024.15
2018-06-23T22:38:35.322Z,1024.18
2018-06-23T22:39:57.362Z,1024.16
2018-06-23T22:41:19.417Z,1024.14
2018-06-23T22:42:41.236Z,1024.15
2018-06-23T22:44:03.262Z,1024.17
2018-06-23T22:45:25.315Z,1024.15
2018-06-23T22:46:47.349Z,1024.17
2018-06-23T22:48:09.133Z,1024.16
2018-06-23T22:49:31.189Z,1024.15
2018-06-23T22:50:52.959Z,1024.12
2018-06-23T22:52:15.013Z,1024.1
2018-06-23T22:53:36.777Z,1024.07
2018-06-23T22:54:58.850Z,1024.07
2018-06-23T22:56:20.889Z,1024.02
2018-06-23T22:57:42.963Z,1024.03
2018-06-23T22:59:04.742Z,1024.01
2018-06-23T23:00:26.796Z,1024.01
2018-06-23T23:01:48.579Z,1024.04
2018-06-23T23:03:10.641Z,1024.03
2018-06-23T23:04:32.516Z,1024.05
2018-06-23T23:05:54.669Z,1024.05
2018-06-23T23:07:16.451Z,1023.98
2018-06-23T23:08:38.514Z,1023.99
2018-06-23T23:10:00.578Z,1023.95
2018-06-23T23:11:22.602Z,1023.89
2018-06-23T23:12:44.689Z,1023.88
2018-06-23T23:14:06.983Z,1023.86
2018-06-23T23:15:29.052Z,1023.89
2018-06-23T23:16:51.108Z,1023.89
2018-06-23T23:18:13.174Z,1023.91
2018-06-23T23:19:34.683Z,1023.86
2018-06-23T23:20:56.465Z,1023.89
2018-06-23T23:22:18.495Z,1023.88
2018-06-23T23:23:40.278Z,1023.9
2018-06-23T23:25:02.355Z,1023.87
2018-06-23T23:26:24.140Z,1023.88
2018-06-23T23:27:46.193Z,1023.87
2018-06-23T23:29:08.288Z,1023.88
2018-06-23T23:30:30.331Z,1023.87
2018-06-23T23:31:51.842Z,1023.88
2018-06-23T23:33:13.871Z,1023.87
2018-06-23T23:34:35.659Z,1023.85
2018-06-23T23:35:57.718Z,1023.83
2018-06-23T23:37:19.512Z,1023.82
2018-06-23T23:38:41.565Z,1023.84
2018-06-23T23:40:03.587Z,1023.82
2018-06-23T23:41:25.357Z,1023.83
2018-06-23T23:42:47.413Z,1023.82
2018-06-23T23:44:09.439Z,1023.84
2018-06-23T23:45:31.463Z,1023.83
2018-06-23T23:46:53.250Z,1023.71
2018-06-23T23:48:15.282Z,1023.75
2018-06-23T23:49:37.345Z,1023.71
2018-06-23T23:50:59.387Z,1023.7
2018-06-23T23:52:21.433Z,1023.66
2018-06-23T23:53:43.469Z,1023.66
2018-06-23T23:55:05.529Z,1023.62
2018-06-23T23:56:27.031Z,1023.55
2018-06-23T23:57:49.067Z,1023.57
2018-06-23T23:59:11.106Z,1023.54
